createdAt,value
2022-10-19T00:02:17.954Z,77.50
2022-10-19T00:04:50.499Z,78.76
2022-10-19T00:07:22.667Z,78.42
2022-10-19T00:09:56.965Z,77.92
2022-10-19T00:12:29.047Z,79.27
2022-10-19T00:15:00.754Z,78.88
2022-10-19T00:17:33.155Z,79.28
2022-10-19T00:20:05.229Z,80.07
2022-10-19T00:22:37.268Z,79.33
2022-10-19T00:25:12.709Z,78.44
2022-10-19T00:27:44.775Z,78.26
2022-10-19T00:30:16.487Z,76.79
2022-10-19T00:32:48.535Z,78.17
2022-10-19T00:35:20.247Z,76.23
2022-10-19T00:37:52.209Z,75.67
2022-10-19T00:40:26.607Z,78.42
2022-10-19T00:42:58.870Z,78.56
2022-10-19T00:45:35.005Z,77.34
2022-10-19T00:48:07.216Z,76.14
2022-10-19T00:50:39.625Z,77.68
2022-10-19T00:53:11.716Z,77.20
2022-10-19T00:55:46.836Z,79.01
2022-10-19T00:58:18.918Z,78.67
2022-10-19T01:01:16.308Z,78.39
2022-10-19T01:03:49.157Z,78.28
2022-10-19T01:06:21.768Z,77.71
2022-10-19T01:08:53.649Z,76.40
2022-10-19T01:11:44.075Z,75.91
2022-10-19T01:14:30.293Z,75.65
2022-10-19T01:17:12.676Z,76.19
2022-10-19T01:20:21.467Z,73.00
2022-10-19T01:23:10.834Z,73.30
2022-10-19T01:25:57.247Z,74.71
2022-10-19T01:28:47.663Z,73.15
2022-10-19T01:31:30.726Z,73.83
2022-10-19T01:34:10.114Z,76.63
2022-10-19T01:36:47.285Z,74.74
2022-10-19T01:39:39.443Z,76.38
2022-10-19T01:42:17.817Z,77.58
2022-10-19T01:44:55.625Z,77.42
2022-10-19T01:47:35.321Z,76.43
2022-10-19T01:50:14.025Z,78.61
2022-10-19T01:52:46.936Z,78.71
2022-10-19T01:55:21.748Z,79.45
2022-10-19T01:57:58.536Z,78.03
2022-10-19T02:00:32.457Z,76.65
2022-10-19T02:03:09.006Z,77.02
2022-10-19T02:05:42.405Z,78.96
2022-10-19T02:08:17.848Z,80.65
2022-10-19T02:10:50.807Z,80.35
2022-10-19T02:13:24.087Z,78.36
2022-10-19T02:15:59.936Z,77.68
2022-10-19T02:18:38.776Z,76.83
2022-10-19T02:21:15.096Z,77.99
2022-10-19T02:23:48.352Z,78.22
2022-10-19T02:26:22.737Z,77.29
2022-10-19T02:28:56.644Z,77.80
2022-10-19T02:31:29.476Z,78.03
2022-10-19T02:34:04.037Z,78.35
2022-10-19T02:36:35.427Z,75.90
2022-10-19T02:39:07.725Z,77.04
2022-10-19T02:41:45.796Z,76.74
2022-10-19T02:44:22.046Z,76.01
2022-10-19T02:46:57.876Z,77.88
2022-10-19T02:49:36.085Z,78.25
2022-10-19T02:52:09.775Z,76.82
2022-10-19T02:54:44.005Z,77.05
2022-10-19T02:57:20.537Z,77.21
2022-10-19T02:59:52.937Z,78.70
2022-10-19T03:02:24.567Z,78.01
2022-10-19T03:04:58.996Z,78.12
2022-10-19T03:07:30.708Z,78.51
2022-10-19T03:10:02.575Z,78.70
2022-10-19T03:12:34.026Z,78.52
2022-10-19T03:15:06.815Z,76.62
2022-10-19T03:17:38.717Z,78.42
2022-10-19T03:20:14.698Z,77.13
2022-10-19T03:22:46.602Z,77.58
2022-10-19T03:25:18.746Z,77.57
2022-10-19T03:27:51.006Z,77.49
2022-10-19T03:30:23.135Z,77.13
2022-10-19T03:32:54.838Z,77.92
2022-10-19T03:35:29.545Z,77.26
2022-10-19T03:38:01.218Z,78.89
2022-10-19T03:40:33.245Z,80.01
2022-10-19T03:43:04.928Z,80.32
2022-10-19T03:45:37.316Z,79.28
2022-10-19T03:48:09.708Z,79.17
2022-10-19T03:50:44.847Z,78.95
2022-10-19T03:53:16.537Z,77.77
2022-10-19T03:55:48.497Z,77.44
2022-10-19T03:58:20.387Z,78.79
2022-10-19T04:00:52.598Z,78.27
2022-10-19T04:03:24.385Z,76.61
2022-10-19T04:06:05.117Z,76.87
2022-10-19T04:08:37.135Z,77.62
2022-10-19T04:11:13.445Z,77.21
2022-10-19T04:13:45.146Z,76.46
2022-10-19T04:16:17.275Z,77.31
2022-10-19T04:18:49.293Z,75.46
2022-10-19T04:21:30.147Z,74.99
2022-10-19T04:24:03.967Z,74.90
2022-10-19T04:26:37.149Z,74.48
2022-10-19T04:29:09.303Z,72.69
2022-10-19T04:31:41.828Z,72.50
2022-10-19T04:34:13.668Z,73.35
2022-10-19T04:36:48.887Z,73.22
2022-10-19T04:39:20.924Z,71.38
2022-10-19T04:41:53.068Z,71.60
2022-10-19T04:44:25.079Z,71.16
2022-10-19T04:46:57.210Z,71.95
2022-10-19T04:49:29.125Z,73.24
2022-10-19T04:52:04.445Z,71.60
2022-10-19T04:54:36.309Z,72.61
2022-10-19T04:57:08.407Z,72.60
2022-10-19T04:59:40.347Z,72.10
2022-10-19T05:02:12.529Z,73.44
2022-10-19T05:04:45.242Z,73.81
2022-10-19T05:07:22.967Z,72.55
2022-10-19T05:09:54.826Z,72.18
2022-10-19T05:12:26.946Z,74.43
2022-10-19T05:14:58.807Z,76.49
2022-10-19T05:17:34.555Z,76.21
2022-10-19T05:20:06.805Z,75.02
2022-10-19T05:22:42.128Z,77.07
2022-10-19T05:25:13.905Z,76.73
2022-10-19T05:27:46.105Z,77.29
2022-10-19T05:30:17.886Z,77.12
2022-10-19T05:32:49.986Z,77.96
2022-10-19T05:35:22.693Z,78.52
2022-10-19T05:38:00.247Z,81.17
2022-10-19T05:40:32.087Z,81.20
2022-10-19T05:43:03.955Z,81.75
2022-10-19T05:45:35.387Z,80.71
2022-10-19T05:48:07.848Z,79.89
2022-10-19T05:50:39.326Z,80.38
2022-10-19T05:53:16.268Z,80.66
2022-10-19T05:55:47.748Z,80.89
2022-10-19T05:58:19.560Z,79.04
2022-10-19T06:00:55.581Z,79.89
2022-10-19T06:03:28.563Z,80.09
2022-10-19T06:06:00.749Z,78.67
2022-10-19T06:08:35.302Z,79.25
2022-10-19T06:11:11.601Z,79.10
2022-10-19T06:13:45.440Z,77.99
2022-10-19T06:16:18.899Z,79.91
2022-10-19T06:18:50.722Z,79.33
2022-10-19T06:21:25.044Z,78.45
2022-10-19T06:24:09.583Z,79.36
2022-10-19T06:26:41.043Z,80.40
2022-10-19T06:29:13.234Z,79.56
2022-10-19T06:31:47.003Z,79.51
2022-10-19T06:34:18.918Z,80.08
2022-10-19T06:36:50.340Z,78.89
2022-10-19T06:39:25.321Z,79.88
2022-10-19T06:41:56.820Z,80.15
2022-10-19T06:44:28.661Z,79.48
2022-10-19T06:47:00.081Z,79.80
2022-10-19T06:49:32.261Z,78.89
2022-10-19T06:52:06.183Z,79.15
2022-10-19T06:54:41.062Z,79.46
2022-10-19T06:57:12.940Z,80.29
2022-10-19T06:59:46.005Z,80.80
2022-10-19T07:02:20.245Z,79.78
2022-10-19T07:04:52.557Z,81.21
2022-10-19T07:07:24.442Z,80.03
2022-10-19T07:09:59.475Z,80.78
2022-10-19T07:12:31.355Z,78.85
2022-10-19T07:15:03.560Z,77.29
2022-10-19T07:17:35.676Z,77.60
2022-10-19T07:20:09.313Z,79.24
2022-10-19T07:22:41.114Z,79.34
2022-10-19T07:25:16.034Z,77.66
2022-10-19T07:27:47.992Z,74.77
2022-10-19T07:30:20.916Z,76.28
2022-10-19T07:33:07.120Z,75.01
2022-10-19T07:35:42.234Z,74.95
2022-10-19T07:38:14.774Z,76.17
2022-10-19T07:40:50.211Z,75.78
2022-10-19T07:43:22.490Z,75.46
2022-10-19T07:46:01.731Z,75.79
2022-10-19T07:48:34.260Z,77.08
2022-10-19T07:51:09.652Z,76.80
2022-10-19T07:53:44.055Z,75.24
2022-10-19T07:56:21.051Z,73.89
2022-10-19T07:58:54.251Z,75.70
2022-10-19T08:01:28.412Z,74.58
2022-10-19T08:06:55.173Z,73.86
2022-10-19T08:09:51.411Z,73.05
2022-10-19T08:12:22.594Z,76.00
2022-10-19T08:14:56.398Z,75.92
2022-10-19T08:17:28.998Z,77.42
2022-10-19T08:20:01.193Z,77.08
2022-10-19T08:22:34.007Z,78.75
2022-10-19T08:25:06.875Z,80.70
2022-10-19T08:27:42.117Z,78.92
2022-10-19T08:30:15.316Z,79.75
2022-10-19T08:32:47.955Z,80.13
2022-10-19T08:35:20.205Z,78.11
2022-10-19T08:37:54.449Z,79.18
2022-10-19T08:40:29.596Z,78.84
2022-10-19T08:43:12.896Z,77.50
2022-10-19T08:45:47.290Z,75.56
2022-10-19T08:48:28.578Z,77.47
2022-10-19T08:51:03.047Z,75.87
2022-10-19T08:53:43.862Z,74.22
2022-10-19T08:56:49.972Z,71.51
2022-10-19T08:59:36.141Z,72.00
2022-10-19T09:02:16.495Z,71.86
2022-10-19T09:04:53.640Z,71.88
2022-10-19T09:07:30.826Z,69.37
2022-10-19T09:10:12.737Z,68.67
2022-10-19T09:12:53.940Z,67.98
2022-10-19T09:15:37.975Z,69.31
2022-10-19T09:18:13.936Z,70.31
2022-10-19T09:20:50.418Z,69.90
2022-10-19T09:23:29.458Z,69.22
2022-10-19T09:26:01.975Z,69.38
2022-10-19T09:28:48.546Z,68.69
2022-10-19T09:31:31.834Z,67.92
2022-10-19T09:34:08.803Z,67.92
2022-10-19T09:36:51.742Z,69.90
2022-10-19T09:39:27.023Z,67.71
2022-10-19T09:42:08.243Z,69.11
2022-10-19T09:44:40.522Z,69.34
2022-10-19T09:47:33.116Z,67.81
2022-10-19T09:50:23.045Z,70.61
2022-10-19T09:52:56.603Z,69.35
2022-10-19T09:55:38.721Z,67.61
2022-10-19T09:58:20.516Z,66.80
2022-10-19T10:00:55.067Z,66.00
2022-10-19T10:03:35.358Z,65.80
2022-10-19T10:06:10.193Z,65.68
2022-10-19T10:08:48.078Z,65.73
2022-10-19T10:11:27.375Z,66.15
2022-10-19T10:14:00.992Z,63.45
2022-10-19T10:16:33.897Z,61.01
2022-10-19T10:19:10.838Z,59.68
2022-10-19T10:21:52.738Z,60.58
2022-10-19T10:24:26.531Z,58.30
2022-10-19T10:27:00.464Z,57.59
2022-10-19T10:29:33.345Z,56.84
2022-10-19T10:32:08.193Z,55.98
2022-10-19T10:34:53.790Z,55.14
2022-10-19T10:37:32.904Z,56.26
2022-10-19T10:40:05.061Z,58.26
2022-10-19T10:42:40.915Z,56.23
2022-10-19T10:45:21.638Z,56.86
2022-10-19T10:47:53.082Z,53.84
2022-10-19T10:50:33.942Z,53.09
2022-10-19T10:53:09.466Z,49.53
2022-10-19T10:55:41.760Z,48.13
2022-10-19T10:58:25.415Z,47.18
2022-10-19T11:01:06.553Z,48.90
2022-10-19T11:03:42.223Z,48.11
2022-10-19T11:06:20.449Z,48.10
2022-10-19T11:08:58.239Z,47.83
2022-10-19T11:11:35.823Z,47.50
2022-10-19T11:14:30.504Z,47.18
2022-10-19T11:17:09.782Z,47.08
2022-10-19T11:19:45.705Z,46.17
2022-10-19T11:22:32.342Z,46.41
2022-10-19T11:25:23.426Z,47.06
2022-10-19T11:28:08.782Z,48.76
2022-10-19T11:30:51.383Z,49.04
2022-10-19T11:33:40.459Z,47.32
2022-10-19T11:36:21.839Z,50.24
2022-10-19T11:39:14.191Z,51.07
2022-10-19T11:41:58.293Z,51.34
2022-10-19T11:44:43.691Z,49.37
2022-10-19T11:47:36.611Z,48.76
2022-10-19T11:50:27.182Z,49.09
2022-10-19T11:53:10.849Z,49.02
2022-10-19T11:55:51.119Z,48.57
2022-10-19T11:58:41.372Z,49.38
2022-10-19T12:01:24.893Z,48.45
2022-10-19T12:04:26.375Z,49.78
2022-10-19T12:07:09.695Z,49.22
2022-10-19T12:09:51.486Z,49.47
2022-10-19T12:12:36.842Z,49.36
2022-10-19T12:15:26.989Z,49.60
2022-10-19T12:18:08.173Z,49.92
2022-10-19T12:20:46.471Z,50.57
2022-10-19T12:23:35.116Z,50.80
2022-10-19T12:26:10.662Z,49.67
2022-10-19T12:28:50.954Z,49.79
2022-10-19T12:31:24.877Z,48.50
2022-10-19T12:34:05.761Z,49.75
2022-10-19T12:36:46.353Z,50.06
2022-10-19T12:39:26.755Z,49.48
2022-10-19T12:42:10.832Z,49.65
2022-10-19T12:45:14.153Z,50.52
2022-10-19T12:48:19.833Z,49.67
2022-10-19T12:51:19.955Z,48.53
2022-10-19T12:53:53.194Z,48.68
2022-10-19T12:56:40.881Z,47.30
2022-10-19T12:59:26.355Z,47.59
2022-10-19T13:02:02.754Z,48.34
2022-10-19T13:04:40.351Z,48.62
2022-10-19T13:07:19.832Z,49.52
2022-10-19T13:09:52.670Z,48.66
2022-10-19T13:12:47.031Z,49.53
2022-10-19T13:16:06.806Z,50.44
2022-10-19T13:19:09.467Z,51.76
2022-10-19T13:21:51.080Z,51.44
2022-10-19T13:24:30.443Z,53.38
2022-10-19T13:27:30.472Z,53.88
2022-10-19T13:30:03.395Z,52.06
2022-10-19T13:32:40.334Z,52.82
2022-10-19T13:35:32.800Z,52.32
2022-10-19T13:38:28.071Z,53.19
2022-10-19T13:41:05.868Z,52.50
2022-10-19T13:43:41.787Z,51.98
2022-10-19T13:46:17.346Z,53.12
2022-10-19T13:49:14.592Z,54.02
2022-10-19T13:52:04.148Z,51.89
2022-10-19T13:54:55.551Z,51.79
2022-10-19T13:57:37.830Z,52.74
2022-10-19T14:00:19.307Z,51.88
2022-10-19T14:03:12.425Z,51.24
2022-10-19T14:06:09.746Z,51.05
2022-10-19T14:09:15.123Z,51.70
2022-10-19T14:11:50.622Z,51.75
2022-10-19T14:14:25.024Z,51.68
2022-10-19T14:17:03.074Z,51.95
2022-10-19T14:20:05.740Z,50.16
2022-10-19T14:22:39.091Z,51.40
2022-10-19T14:25:22.529Z,52.33
2022-10-19T14:28:01.565Z,52.98
2022-10-19T14:30:35.921Z,53.89
2022-10-19T14:33:12.203Z,54.75
2022-10-19T14:35:46.573Z,53.55
2022-10-19T14:38:24.644Z,54.62
2022-10-19T14:40:59.602Z,55.35
2022-10-19T14:43:34.171Z,52.01
2022-10-19T14:46:17.811Z,52.45
2022-10-19T14:48:51.295Z,53.76
2022-10-19T14:51:36.338Z,54.68
2022-10-19T14:54:11.015Z,55.91
2022-10-19T14:56:53.942Z,55.84
2022-10-19T14:59:31.438Z,55.67
2022-10-19T15:02:07.576Z,55.12
2022-10-19T15:04:42.140Z,55.70
2022-10-19T15:07:21.939Z,54.99
2022-10-19T15:09:57.873Z,54.54
2022-10-19T15:12:38.482Z,55.53
2022-10-19T15:15:13.547Z,55.33
2022-10-19T15:17:55.012Z,55.52
2022-10-19T15:20:30.188Z,55.76
2022-10-19T15:23:04.664Z,56.07
2022-10-19T15:25:38.584Z,55.92
2022-10-19T15:28:40.590Z,55.73
2022-10-19T15:31:20.471Z,56.18
2022-10-19T15:33:55.047Z,56.08
2022-10-19T15:36:28.784Z,55.63
2022-10-19T15:39:24.941Z,55.96
2022-10-19T15:41:58.225Z,56.31
2022-10-19T15:44:44.023Z,58.19
2022-10-19T15:47:27.188Z,56.64
2022-10-19T15:50:04.306Z,57.45
2022-10-19T15:52:37.025Z,57.06
2022-10-19T15:55:10.304Z,58.27
2022-10-19T15:57:42.624Z,58.77
2022-10-19T16:00:20.666Z,59.11
2022-10-19T16:02:53.124Z,60.39
2022-10-19T16:05:25.817Z,61.32
2022-10-19T16:07:58.658Z,61.26
2022-10-19T16:10:31.546Z,61.43
2022-10-19T16:13:03.753Z,62.74
2022-10-19T16:15:39.093Z,62.61
2022-10-19T16:18:14.551Z,63.08
2022-10-19T16:20:47.145Z,64.25
2022-10-19T16:26:11.950Z,66.33
2022-10-19T16:28:44.527Z,67.35
2022-10-19T16:31:20.519Z,67.46
2022-10-19T16:33:52.927Z,68.72
2022-10-19T16:36:41.027Z,68.97
2022-10-19T16:39:13.251Z,69.61
2022-10-19T16:41:46.821Z,69.61
2022-10-19T16:44:19.414Z,69.89
2022-10-19T16:46:54.692Z,71.26
2022-10-19T16:49:26.971Z,71.88
2022-10-19T16:52:01.001Z,72.64
2022-10-19T16:54:33.802Z,73.91
2022-10-19T16:57:09.586Z,73.54
2022-10-19T16:59:41.221Z,74.20
2022-10-19T17:02:15.563Z,74.80
2022-10-19T17:04:46.693Z,76.00
2022-10-19T17:07:18.738Z,77.80
2022-10-19T17:09:53.726Z,77.84
2022-10-19T17:12:26.409Z,76.78
2022-10-19T17:15:11.554Z,77.87
2022-10-19T17:17:51.646Z,78.44
2022-10-19T17:20:24.482Z,78.35
2022-10-19T17:22:55.974Z,79.12
2022-10-19T17:25:27.266Z,79.38
2022-10-19T17:27:58.733Z,80.58
2022-10-19T17:30:29.919Z,80.40
2022-10-19T17:33:03.912Z,81.40
2022-10-19T17:35:36.838Z,81.74
2022-10-19T17:38:08.460Z,81.75
2022-10-19T17:40:39.921Z,81.63
2022-10-19T17:43:11.545Z,81.16
2022-10-19T17:48:17.574Z,82.45
2022-10-19T17:50:58.317Z,82.38
2022-10-19T17:53:31.030Z,81.69
2022-10-19T17:56:03.975Z,81.65
2022-10-19T17:58:39.115Z,82.06
2022-10-19T18:01:12.223Z,82.13
2022-10-19T18:03:46.136Z,83.47
2022-10-19T18:06:20.120Z,82.76
2022-10-19T18:08:53.191Z,82.72
2022-10-19T18:11:29.398Z,82.94
2022-10-19T18:14:02.884Z,82.57
2022-10-19T18:16:36.033Z,82.34
2022-10-19T18:19:12.250Z,81.90
2022-10-19T18:21:46.874Z,82.71
2022-10-19T18:24:21.446Z,81.97
2022-10-19T18:26:53.987Z,82.51
2022-10-19T18:29:26.894Z,83.51
2022-10-19T18:31:58.030Z,83.84
2022-10-19T18:34:31.837Z,84.71
2022-10-19T18:37:02.719Z,84.75
2022-10-19T18:39:36.252Z,84.89
2022-10-19T18:42:19.684Z,84.57
2022-10-19T18:44:53.006Z,84.97
2022-10-19T18:47:31.103Z,85.38
2022-10-19T18:50:05.415Z,85.00
2022-10-19T18:52:45.220Z,84.79
2022-10-19T18:55:22.926Z,86.06
2022-10-19T18:57:54.407Z,85.73
2022-10-19T19:00:26.321Z,86.72
2022-10-19T19:02:58.534Z,85.64
2022-10-19T19:05:35.226Z,85.93
2022-10-19T19:08:07.145Z,86.69
2022-10-19T19:10:38.927Z,86.20
2022-10-19T19:13:10.468Z,87.00
2022-10-19T19:15:43.546Z,87.85
2022-10-19T19:21:21.474Z,81.39
2022-10-19T19:23:54.127Z,79.45
2022-10-19T19:26:30.767Z,78.65
2022-10-19T19:29:02.746Z,77.44
2022-10-19T19:31:34.806Z,75.51
2022-10-19T19:34:09.427Z,75.99
2022-10-19T19:36:48.173Z,73.60
2022-10-19T19:39:25.244Z,73.14
2022-10-19T19:41:57.665Z,71.28
2022-10-19T19:44:32.502Z,71.18
2022-10-19T19:47:04.922Z,70.09
2022-10-19T19:49:39.688Z,69.44
2022-10-19T19:52:14.130Z,69.80
2022-10-19T19:54:45.610Z,69.93
2022-10-19T19:57:18.218Z,70.26
2022-10-19T19:59:49.670Z,69.34
2022-10-19T20:02:21.468Z,69.42
2022-10-19T20:04:53.003Z,69.42
2022-10-19T20:07:27.769Z,68.73
2022-10-19T20:10:00.290Z,68.64
2022-10-19T20:12:32.408Z,68.72
2022-10-19T20:15:04.709Z,69.37
2022-10-19T20:17:37.434Z,69.03
2022-10-19T20:20:11.669Z,68.77
2022-10-19T20:22:49.428Z,67.73
2022-10-19T20:25:20.945Z,67.96
2022-10-19T20:27:54.322Z,67.82
2022-10-19T20:30:25.346Z,68.71
2022-10-19T20:32:58.922Z,68.23
2022-10-19T20:35:30.089Z,67.87
2022-10-19T20:38:04.485Z,67.62
2022-10-19T20:40:35.581Z,68.10
2022-10-19T20:43:06.886Z,67.79
2022-10-19T20:54:21.675Z,69.03
2022-10-19T20:56:54.555Z,69.18
2022-10-19T20:59:28.214Z,68.81
2022-10-19T21:02:00.939Z,68.95
2022-10-19T21:04:32.962Z,68.72
2022-10-19T21:07:05.336Z,69.16
2022-10-19T21:09:40.015Z,69.42
2022-10-19T21:12:14.465Z,69.84
2022-10-19T21:14:46.354Z,69.65
2022-10-19T21:17:18.612Z,70.48
2022-10-19T21:19:50.616Z,70.28
2022-10-19T21:22:22.954Z,69.96
2022-10-19T21:24:57.778Z,69.54
2022-10-19T21:27:30.215Z,70.60
2022-10-19T21:30:06.315Z,70.50
2022-10-19T21:32:38.656Z,70.25
2022-10-19T21:35:11.235Z,70.33
2022-10-19T21:37:49.254Z,70.32
2022-10-19T21:40:23.895Z,70.66
2022-10-19T21:42:56.493Z,71.10
2022-10-19T21:45:30.658Z,71.89
2022-10-19T21:48:03.438Z,71.55
2022-10-19T21:50:35.497Z,72.28
2022-10-19T21:53:07.794Z,72.49
2022-10-19T21:55:42.315Z,72.86
2022-10-19T21:58:14.619Z,72.67
2022-10-19T22:00:46.885Z,73.83
2022-10-19T22:03:21.447Z,74.68
2022-10-19T22:05:54.272Z,74.43
2022-10-19T22:08:26.698Z,75.16
2022-10-19T22:11:07.857Z,74.47
2022-10-19T22:13:40.376Z,74.82
2022-10-19T22:16:14.513Z,73.59
2022-10-19T22:18:47.273Z,74.10
2022-10-19T22:21:20.817Z,75.06
2022-10-19T22:23:57.533Z,75.62
2022-10-19T22:26:34.175Z,75.44
2022-10-19T22:29:08.176Z,75.26
2022-10-19T22:31:40.338Z,75.04
2022-10-19T22:34:14.494Z,75.47
2022-10-19T22:36:46.764Z,75.97
2022-10-19T22:39:19.557Z,74.16
2022-10-19T22:41:53.595Z,74.48
2022-10-19T22:44:25.635Z,74.66
2022-10-19T22:46:57.335Z,74.50
2022-10-19T22:49:29.514Z,74.56
2022-10-19T22:52:01.056Z,74.31
2022-10-19T22:54:32.875Z,74.77
2022-10-19T22:57:07.556Z,74.91
2022-10-19T22:59:39.615Z,74.66
2022-10-19T23:02:10.997Z,74.60
2022-10-19T23:04:42.775Z,74.71
2022-10-19T23:07:14.134Z,74.97
2022-10-19T23:09:45.937Z,74.36
2022-10-19T23:12:20.016Z,75.09
2022-10-19T23:14:51.813Z,74.05
2022-10-19T23:17:23.176Z,74.35
2022-10-19T23:19:55.134Z,75.63
2022-10-19T23:22:26.661Z,76.21
2022-10-19T23:24:58.513Z,75.58
2022-10-19T23:27:32.705Z,75.46
2022-10-19T23:30:05.235Z,75.33
2022-10-19T23:32:36.800Z,75.46
2022-10-19T23:35:10.316Z,76.37
2022-10-19T23:37:41.736Z,76.43
2022-10-19T23:40:28.735Z,75.59
2022-10-19T23:43:02.855Z,75.23
2022-10-19T23:45:34.595Z,76.10
2022-10-19T23:48:06.061Z,75.78
2022-10-19T23:50:37.973Z,76.44
2022-10-19T23:53:09.334Z,76.49
2022-10-19T23:55:41.375Z,77.41
2022-10-19T23:58:15.473Z,77.41
